sensor_id;sensor_type;location;lat;lon;timestamp;temperature;humidity
34137;DHT22;20414;50.860;4.382;2022-12-18T00:02:23;8.60;66.50
34137;DHT22;20414;50.860;4.382;2022-12-18T00:04:48;8.60;66.60
34137;DHT22;20414;50.860;4.382;2022-12-18T00:07:14;8.60;66.60
34137;DHT22;20414;50.860;4.382;2022-12-18T00:09:39;8.60;66.60
34137;DHT22;20414;50.860;4.382;2022-12-18T00:12:06;8.60;66.50
34137;DHT22;20414;50.860;4.382;2022-12-18T00:14:32;8.60;66.60
34137;DHT22;20414;50.860;4.382;2022-12-18T00:16:57;8.60;66.60
34137;DHT22;20414;50.860;4.382;2022-12-18T00:19:26;8.60;66.60
34137;DHT22;20414;50.860;4.382;2022-12-18T00:21:52;8.60;66.60
34137;DHT22;20414;50.860;4.382;2022-12-18T00:24:17;8.60;66.70
34137;DHT22;20414;50.860;4.382;2022-12-18T00:26:44;8.60;66.70
34137;DHT22;20414;50.860;4.382;2022-12-18T00:29:13;8.60;66.70
34137;DHT22;20414;50.860;4.382;2022-12-18T00:31:40;8.60;67.40
34137;DHT22;20414;50.860;4.382;2022-12-18T00:34:10;8.60;66.70
34137;DHT22;20414;50.860;4.382;2022-12-18T00:36:37;8.60;66.70
34137;DHT22;20414;50.860;4.382;2022-12-18T00:39:04;8.60;66.70
34137;DHT22;20414;50.860;4.382;2022-12-18T00:41:31;8.60;66.70
34137;DHT22;20414;50.860;4.382;2022-12-18T00:44:16;8.60;66.70
34137;DHT22;20414;50.860;4.382;2022-12-18T00:46:43;8.60;66.70
34137;DHT22;20414;50.860;4.382;2022-12-18T00:49:14;8.60;66.70
34137;DHT22;20414;50.860;4.382;2022-12-18T00:51:40;8.60;66.70
34137;DHT22;20414;50.860;4.382;2022-12-18T00:54:06;8.60;66.70
34137;DHT22;20414;50.860;4.382;2022-12-18T00:56:32;8.60;66.70
34137;DHT22;20414;50.860;4.382;2022-12-18T00:58:58;8.60;66.70
34137;DHT22;20414;50.860;4.382;2022-12-18T01:01:23;8.60;66.60
34137;DHT22;20414;50.860;4.382;2022-12-18T01:03:49;8.60;66.60
34137;DHT22;20414;50.860;4.382;2022-12-18T01:06:15;8.60;66.70
34137;DHT22;20414;50.860;4.382;2022-12-18T01:08:44;8.60;66.70
34137;DHT22;20414;50.860;4.382;2022-12-18T01:11:13;8.60;66.70
34137;DHT22;20414;50.860;4.382;2022-12-18T01:13:40;8.60;66.70
34137;DHT22;20414;50.860;4.382;2022-12-18T01:16:06;8.60;66.70
34137;DHT22;20414;50.860;4.382;2022-12-18T01:18:31;8.60;66.70
34137;DHT22;20414;50.860;4.382;2022-12-18T01:20:57;8.60;66.70
34137;DHT22;20414;50.860;4.382;2022-12-18T01:23:22;8.60;66.70
34137;DHT22;20414;50.860;4.382;2022-12-18T01:25:48;8.60;66.70
34137;DHT22;20414;50.860;4.382;2022-12-18T01:28:14;8.60;66.70
34137;DHT22;20414;50.860;4.382;2022-12-18T01:30:39;8.60;66.70
34137;DHT22;20414;50.860;4.382;2022-12-18T01:33:05;8.60;66.70
34137;DHT22;20414;50.860;4.382;2022-12-18T01:35:31;8.60;66.70
34137;DHT22;20414;50.860;4.382;2022-12-18T01:37:57;8.60;66.70
34137;DHT22;20414;50.860;4.382;2022-12-18T01:40:22;8.70;66.80
34137;DHT22;20414;50.860;4.382;2022-12-18T01:42:52;8.70;66.80
34137;DHT22;20414;50.860;4.382;2022-12-18T01:47:52;8.60;66.70
34137;DHT22;20414;50.860;4.382;2022-12-18T01:50:36;8.70;66.80
34137;DHT22;20414;50.860;4.382;2022-12-18T01:53:19;8.70;66.70
34137;DHT22;20414;50.860;4.382;2022-12-18T01:55:53;8.70;66.80
34137;DHT22;20414;50.860;4.382;2022-12-18T01:58:23;8.70;66.80
34137;DHT22;20414;50.860;4.382;2022-12-18T02:00:50;8.60;66.70
34137;DHT22;20414;50.860;4.382;2022-12-18T02:03:16;8.70;66.80
34137;DHT22;20414;50.860;4.382;2022-12-18T02:12:20;8.70;66.80
34137;DHT22;20414;50.860;4.382;2022-12-18T02:15:24;8.70;66.70
34137;DHT22;20414;50.860;4.382;2022-12-18T02:17:56;8.70;66.70
34137;DHT22;20414;50.860;4.382;2022-12-18T02:20:31;8.70;66.70
34137;DHT22;20414;50.860;4.382;2022-12-18T02:28:33;8.70;66.70
34137;DHT22;20414;50.860;4.382;2022-12-18T02:31:02;8.70;66.70
34137;DHT22;20414;50.860;4.382;2022-12-18T02:33:29;8.70;66.70
34137;DHT22;20414;50.860;4.382;2022-12-18T02:35:57;8.70;66.70
34137;DHT22;20414;50.860;4.382;2022-12-18T02:38:25;8.70;66.70
34137;DHT22;20414;50.860;4.382;2022-12-18T02:40:51;8.70;66.70
34137;DHT22;20414;50.860;4.382;2022-12-18T02:43:18;8.70;66.70
34137;DHT22;20414;50.860;4.382;2022-12-18T02:45:54;8.70;66.70
34137;DHT22;20414;50.860;4.382;2022-12-18T02:48:26;8.70;66.70
34137;DHT22;20414;50.860;4.382;2022-12-18T02:50:59;8.70;66.70
34137;DHT22;20414;50.860;4.382;2022-12-18T02:53:33;8.70;66.80
34137;DHT22;20414;50.860;4.382;2022-12-18T02:58:33;8.70;66.70
34137;DHT22;20414;50.860;4.382;2022-12-18T03:06:07;8.70;66.70
34137;DHT22;20414;50.860;4.382;2022-12-18T03:08:41;8.70;66.70
34137;DHT22;20414;50.860;4.382;2022-12-18T03:11:10;8.70;66.70
34137;DHT22;20414;50.860;4.382;2022-12-18T03:13:54;8.70;66.70
34137;DHT22;20414;50.860;4.382;2022-12-18T03:16:27;8.70;66.60
34137;DHT22;20414;50.860;4.382;2022-12-18T03:19:12;8.70;66.60
34137;DHT22;20414;50.860;4.382;2022-12-18T03:21:48;8.70;66.60
34137;DHT22;20414;50.860;4.382;2022-12-18T03:24:16;8.70;66.60
34137;DHT22;20414;50.860;4.382;2022-12-18T03:26:47;8.70;66.60
34137;DHT22;20414;50.860;4.382;2022-12-18T03:29:24;8.70;66.60
34137;DHT22;20414;50.860;4.382;2022-12-18T03:31:54;8.70;66.60
34137;DHT22;20414;50.860;4.382;2022-12-18T03:34:29;8.70;66.50
34137;DHT22;20414;50.860;4.382;2022-12-18T03:36:56;8.70;66.60
34137;DHT22;20414;50.860;4.382;2022-12-18T03:39:23;8.70;66.60
34137;DHT22;20414;50.860;4.382;2022-12-18T03:42:03;8.70;66.50
34137;DHT22;20414;50.860;4.382;2022-12-18T03:49:36;8.70;66.60
34137;DHT22;20414;50.860;4.382;2022-12-18T03:54:48;8.70;66.50
34137;DHT22;20414;50.860;4.382;2022-12-18T03:57:17;8.70;66.50
34137;DHT22;20414;50.860;4.382;2022-12-18T03:59:46;8.70;66.50
34137;DHT22;20414;50.860;4.382;2022-12-18T04:02:14;8.70;66.50
34137;DHT22;20414;50.860;4.382;2022-12-18T04:04:42;8.70;66.50
34137;DHT22;20414;50.860;4.382;2022-12-18T04:07:09;8.70;66.50
34137;DHT22;20414;50.860;4.382;2022-12-18T04:09:35;8.70;66.40
34137;DHT22;20414;50.860;4.382;2022-12-18T04:12:02;8.70;66.50
34137;DHT22;20414;50.860;4.382;2022-12-18T04:14:28;8.70;66.40
34137;DHT22;20414;50.860;4.382;2022-12-18T04:16:53;8.70;66.40
34137;DHT22;20414;50.860;4.382;2022-12-18T04:19:19;8.70;66.40
34137;DHT22;20414;50.860;4.382;2022-12-18T04:21:45;8.70;66.40
34137;DHT22;20414;50.860;4.382;2022-12-18T04:24:10;8.70;66.40
34137;DHT22;20414;50.860;4.382;2022-12-18T04:26:38;8.70;66.40
34137;DHT22;20414;50.860;4.382;2022-12-18T04:29:03;8.70;66.40
34137;DHT22;20414;50.860;4.382;2022-12-18T04:31:29;8.70;66.40
34137;DHT22;20414;50.860;4.382;2022-12-18T04:33:55;8.70;66.40
34137;DHT22;20414;50.860;4.382;2022-12-18T04:36:21;8.60;66.30
34137;DHT22;20414;50.860;4.382;2022-12-18T04:38:47;8.70;66.40
34137;DHT22;20414;50.860;4.382;2022-12-18T04:41:13;8.70;66.40
34137;DHT22;20414;50.860;4.382;2022-12-18T04:43:38;8.60;66.30
34137;DHT22;20414;50.860;4.382;2022-12-18T04:46:07;8.70;66.40
34137;DHT22;20414;50.860;4.382;2022-12-18T04:48:34;8.70;66.30
34137;DHT22;20414;50.860;4.382;2022-12-18T04:51:00;8.70;66.30
34137;DHT22;20414;50.860;4.382;2022-12-18T04:53:25;8.70;66.40
34137;DHT22;20414;50.860;4.382;2022-12-18T04:56:09;8.70;66.30
34137;DHT22;20414;50.860;4.382;2022-12-18T04:58:35;8.70;66.30
34137;DHT22;20414;50.860;4.382;2022-12-18T05:01:01;8.70;66.30
34137;DHT22;20414;50.860;4.382;2022-12-18T05:03:27;8.70;66.30
34137;DHT22;20414;50.860;4.382;2022-12-18T05:05:53;8.70;66.30
34137;DHT22;20414;50.860;4.382;2022-12-18T05:08:19;8.70;66.30
34137;DHT22;20414;50.860;4.382;2022-12-18T05:10:47;8.60;66.20
34137;DHT22;20414;50.860;4.382;2022-12-18T05:13:13;8.60;66.20
34137;DHT22;20414;50.860;4.382;2022-12-18T05:15:38;8.60;66.10
34137;DHT22;20414;50.860;4.382;2022-12-18T05:18:04;8.70;66.20
34137;DHT22;20414;50.860;4.382;2022-12-18T05:20:31;8.70;66.20
34137;DHT22;20414;50.860;4.382;2022-12-18T05:22:56;8.70;66.20
34137;DHT22;20414;50.860;4.382;2022-12-18T05:25:23;8.70;66.10
34137;DHT22;20414;50.860;4.382;2022-12-18T05:27:49;8.60;66.10
34137;DHT22;20414;50.860;4.382;2022-12-18T05:30:15;8.60;66.10
34137;DHT22;20414;50.860;4.382;2022-12-18T05:32:42;8.70;66.20
34137;DHT22;20414;50.860;4.382;2022-12-18T05:35:09;8.70;66.10
34137;DHT22;20414;50.860;4.382;2022-12-18T05:37:36;8.70;66.10
34137;DHT22;20414;50.860;4.382;2022-12-18T05:40:03;8.60;66.00
34137;DHT22;20414;50.860;4.382;2022-12-18T05:42:29;8.70;66.10
34137;DHT22;20414;50.860;4.382;2022-12-18T05:44:54;8.70;66.10
34137;DHT22;20414;50.860;4.382;2022-12-18T05:47:20;8.70;66.10
34137;DHT22;20414;50.860;4.382;2022-12-18T05:49:45;8.70;66.10
34137;DHT22;20414;50.860;4.382;2022-12-18T05:52:11;8.70;66.10
34137;DHT22;20414;50.860;4.382;2022-12-18T05:54:37;8.60;66.10
34137;DHT22;20414;50.860;4.382;2022-12-18T05:57:03;8.70;66.10
34137;DHT22;20414;50.860;4.382;2022-12-18T05:59:29;8.60;66.10
34137;DHT22;20414;50.860;4.382;2022-12-18T06:01:57;8.70;66.10
34137;DHT22;20414;50.860;4.382;2022-12-18T06:04:23;8.70;66.10
34137;DHT22;20414;50.860;4.382;2022-12-18T06:06:49;8.60;66.10
34137;DHT22;20414;50.860;4.382;2022-12-18T06:09:14;8.70;66.10
34137;DHT22;20414;50.860;4.382;2022-12-18T06:11:40;8.60;66.10
34137;DHT22;20414;50.860;4.382;2022-12-18T06:14:06;8.60;66.10
34137;DHT22;20414;50.860;4.382;2022-12-18T06:16:32;8.70;66.10
34137;DHT22;20414;50.860;4.382;2022-12-18T06:18:59;8.60;66.00
34137;DHT22;20414;50.860;4.382;2022-12-18T06:21:28;8.60;66.10
34137;DHT22;20414;50.860;4.382;2022-12-18T06:23:53;8.60;66.80
34137;DHT22;20414;50.860;4.382;2022-12-18T06:26:19;8.60;66.10
34137;DHT22;20414;50.860;4.382;2022-12-18T06:28:45;8.60;66.10
34137;DHT22;20414;50.860;4.382;2022-12-18T06:31:11;8.60;66.10
34137;DHT22;20414;50.860;4.382;2022-12-18T06:33:38;8.60;66.10
34137;DHT22;20414;50.860;4.382;2022-12-18T06:36:11;8.60;66.10
34137;DHT22;20414;50.860;4.382;2022-12-18T06:38:40;8.60;66.10
34137;DHT22;20414;50.860;4.382;2022-12-18T06:41:10;8.60;66.10
34137;DHT22;20414;50.860;4.382;2022-12-18T06:43:37;8.60;66.10
34137;DHT22;20414;50.860;4.382;2022-12-18T06:46:04;8.60;66.10
34137;DHT22;20414;50.860;4.382;2022-12-18T06:48:30;8.60;66.10
34137;DHT22;20414;50.860;4.382;2022-12-18T06:50:56;8.60;66.10
34137;DHT22;20414;50.860;4.382;2022-12-18T06:53:22;8.60;66.10
34137;DHT22;20414;50.860;4.382;2022-12-18T06:55:48;8.60;66.10
34137;DHT22;20414;50.860;4.382;2022-12-18T06:58:14;8.60;66.10
34137;DHT22;20414;50.860;4.382;2022-12-18T07:00:40;8.60;66.10
34137;DHT22;20414;50.860;4.382;2022-12-18T07:03:06;8.60;66.10
34137;DHT22;20414;50.860;4.382;2022-12-18T07:05:32;8.60;66.10
34137;DHT22;20414;50.860;4.382;2022-12-18T07:07:58;8.60;66.10
34137;DHT22;20414;50.860;4.382;2022-12-18T07:10:24;8.60;66.10
34137;DHT22;20414;50.860;4.382;2022-12-18T07:12:50;8.60;66.10
34137;DHT22;20414;50.860;4.382;2022-12-18T07:15:16;8.60;66.10
34137;DHT22;20414;50.860;4.382;2022-12-18T07:17:46;8.60;66.10
34137;DHT22;20414;50.860;4.382;2022-12-18T07:20:12;8.60;66.10
34137;DHT22;20414;50.860;4.382;2022-12-18T07:22:38;8.60;66.10
34137;DHT22;20414;50.860;4.382;2022-12-18T07:25:04;8.60;66.10
34137;DHT22;20414;50.860;4.382;2022-12-18T07:27:30;8.60;66.10
34137;DHT22;20414;50.860;4.382;2022-12-18T07:29:55;8.60;66.10
34137;DHT22;20414;50.860;4.382;2022-12-18T07:32:21;8.60;66.10
34137;DHT22;20414;50.860;4.382;2022-12-18T07:34:47;8.60;66.10
34137;DHT22;20414;50.860;4.382;2022-12-18T07:37:12;8.60;66.10
34137;DHT22;20414;50.860;4.382;2022-12-18T07:39:41;8.60;66.10
34137;DHT22;20414;50.860;4.382;2022-12-18T07:42:06;8.60;66.10
34137;DHT22;20414;50.860;4.382;2022-12-18T07:44:51;8.60;66.10
34137;DHT22;20414;50.860;4.382;2022-12-18T07:47:16;8.60;66.10
34137;DHT22;20414;50.860;4.382;2022-12-18T07:49:42;8.60;66.10
34137;DHT22;20414;50.860;4.382;2022-12-18T07:52:08;8.60;66.10
34137;DHT22;20414;50.860;4.382;2022-12-18T07:54:34;8.60;66.10
34137;DHT22;20414;50.860;4.382;2022-12-18T07:57:00;8.60;66.10
34137;DHT22;20414;50.860;4.382;2022-12-18T07:59:26;8.60;66.10
34137;DHT22;20414;50.860;4.382;2022-12-18T08:01:52;8.60;66.10
34137;DHT22;20414;50.860;4.382;2022-12-18T08:04:18;8.60;66.10
34137;DHT22;20414;50.860;4.382;2022-12-18T08:06:43;8.60;66.10
34137;DHT22;20414;50.860;4.382;2022-12-18T08:09:09;8.60;66.10
34137;DHT22;20414;50.860;4.382;2022-12-18T08:11:35;8.60;66.10
34137;DHT22;20414;50.860;4.382;2022-12-18T08:14:01;8.60;66.00
34137;DHT22;20414;50.860;4.382;2022-12-18T08:16:27;8.60;66.00
34137;DHT22;20414;50.860;4.382;2022-12-18T08:18:53;8.60;66.00
34137;DHT22;20414;50.860;4.382;2022-12-18T08:21:22;8.60;66.10
34137;DHT22;20414;50.860;4.382;2022-12-18T08:23:50;8.60;66.10
34137;DHT22;20414;50.860;4.382;2022-12-18T08:26:16;8.60;66.10
34137;DHT22;20414;50.860;4.382;2022-12-18T08:28:43;8.60;66.10
34137;DHT22;20414;50.860;4.382;2022-12-18T08:31:09;8.60;66.10
34137;DHT22;20414;50.860;4.382;2022-12-18T08:33:36;8.60;66.10
34137;DHT22;20414;50.860;4.382;2022-12-18T08:36:03;8.60;66.10
34137;DHT22;20414;50.860;4.382;2022-12-18T08:38:29;8.60;66.10
34137;DHT22;20414;50.860;4.382;2022-12-18T08:41:06;8.60;66.10
34137;DHT22;20414;50.860;4.382;2022-12-18T08:43:33;8.60;66.80
34137;DHT22;20414;50.860;4.382;2022-12-18T08:46:18;8.60;66.10
34137;DHT22;20414;50.860;4.382;2022-12-18T08:48:44;8.60;66.10
34137;DHT22;20414;50.860;4.382;2022-12-18T08:51:09;8.60;66.10
34137;DHT22;20414;50.860;4.382;2022-12-18T08:53:36;8.60;66.10
34137;DHT22;20414;50.860;4.382;2022-12-18T08:56:02;8.60;66.10
34137;DHT22;20414;50.860;4.382;2022-12-18T08:58:29;8.60;66.10
34137;DHT22;20414;50.860;4.382;2022-12-18T09:01:03;8.60;66.10
34137;DHT22;20414;50.860;4.382;2022-12-18T09:03:29;8.60;66.10
34137;DHT22;20414;50.860;4.382;2022-12-18T09:05:55;8.60;66.00
34137;DHT22;20414;50.860;4.382;2022-12-18T09:08:20;8.60;66.00
34137;DHT22;20414;50.860;4.382;2022-12-18T09:10:48;8.60;66.10
34137;DHT22;20414;50.860;4.382;2022-12-18T09:13:15;8.60;66.00
34137;DHT22;20414;50.860;4.382;2022-12-18T09:15:43;8.60;66.10
34137;DHT22;20414;50.860;4.382;2022-12-18T09:18:11;8.60;66.10
34137;DHT22;20414;50.860;4.382;2022-12-18T09:20:38;8.60;66.10
34137;DHT22;20414;50.860;4.382;2022-12-18T09:23:05;8.60;66.10
34137;DHT22;20414;50.860;4.382;2022-12-18T09:25:31;8.60;66.10
34137;DHT22;20414;50.860;4.382;2022-12-18T09:28:00;8.60;66.10
34137;DHT22;20414;50.860;4.382;2022-12-18T09:30:26;8.60;66.10
34137;DHT22;20414;50.860;4.382;2022-12-18T09:32:52;8.60;66.00
34137;DHT22;20414;50.860;4.382;2022-12-18T09:35:17;8.60;66.10
34137;DHT22;20414;50.860;4.382;2022-12-18T09:37:43;8.60;66.10
34137;DHT22;20414;50.860;4.382;2022-12-18T09:40:18;8.60;66.10
34137;DHT22;20414;50.860;4.382;2022-12-18T09:42:54;8.60;66.10
34137;DHT22;20414;50.860;4.382;2022-12-18T09:45:22;8.60;66.10
34137;DHT22;20414;50.860;4.382;2022-12-18T09:47:50;8.60;66.80
34137;DHT22;20414;50.860;4.382;2022-12-18T09:50:36;8.60;66.10
34137;DHT22;20414;50.860;4.382;2022-12-18T09:53:05;8.60;66.10
34137;DHT22;20414;50.860;4.382;2022-12-18T09:55:33;8.60;66.10
34137;DHT22;20414;50.860;4.382;2022-12-18T09:58:15;8.60;66.10
34137;DHT22;20414;50.860;4.382;2022-12-18T10:00:42;8.60;66.10
34137;DHT22;20414;50.860;4.382;2022-12-18T10:03:15;8.60;66.10
34137;DHT22;20414;50.860;4.382;2022-12-18T10:11:01;8.60;66.10
34137;DHT22;20414;50.860;4.382;2022-12-18T10:20:05;8.60;66.10
34137;DHT22;20414;50.860;4.382;2022-12-18T10:25:18;8.60;66.10
34137;DHT22;20414;50.860;4.382;2022-12-18T10:27:46;8.60;66.10
34137;DHT22;20414;50.860;4.382;2022-12-18T10:30:14;8.60;66.10
34137;DHT22;20414;50.860;4.382;2022-12-18T10:32:40;8.60;66.10
34137;DHT22;20414;50.860;4.382;2022-12-18T10:35:26;8.60;66.10
34137;DHT22;20414;50.860;4.382;2022-12-18T10:38:23;8.60;66.10
34137;DHT22;20414;50.860;4.382;2022-12-18T10:41:00;8.60;66.10
34137;DHT22;20414;50.860;4.382;2022-12-18T10:43:34;8.60;66.10
34137;DHT22;20414;50.860;4.382;2022-12-18T10:48:47;8.60;66.00
34137;DHT22;20414;50.860;4.382;2022-12-18T10:51:23;8.60;66.10
34137;DHT22;20414;50.860;4.382;2022-12-18T10:54:01;8.60;66.10
34137;DHT22;20414;50.860;4.382;2022-12-18T10:56:29;8.60;66.00
34137;DHT22;20414;50.860;4.382;2022-12-18T10:58:58;8.60;66.00
34137;DHT22;20414;50.860;4.382;2022-12-18T11:01:25;8.60;66.00
34137;DHT22;20414;50.860;4.382;2022-12-18T11:06:23;8.60;66.00
34137;DHT22;20414;50.860;4.382;2022-12-18T11:09:19;8.60;66.00
34137;DHT22;20414;50.860;4.382;2022-12-18T11:11:53;8.60;66.10
34137;DHT22;20414;50.860;4.382;2022-12-18T11:14:30;8.60;66.00
34137;DHT22;20414;50.860;4.382;2022-12-18T11:16:58;8.60;66.00
34137;DHT22;20414;50.860;4.382;2022-12-18T11:19:30;8.60;66.00
34137;DHT22;20414;50.860;4.382;2022-12-18T11:21:57;8.60;66.00
34137;DHT22;20414;50.860;4.382;2022-12-18T11:24:30;8.60;66.10
34137;DHT22;20414;50.860;4.382;2022-12-18T11:27:04;8.60;66.00
34137;DHT22;20414;50.860;4.382;2022-12-18T11:29:38;8.60;66.00
34137;DHT22;20414;50.860;4.382;2022-12-18T11:35:23;8.60;66.00
34137;DHT22;20414;50.860;4.382;2022-12-18T11:37:56;8.60;66.00
34137;DHT22;20414;50.860;4.382;2022-12-18T11:40:32;8.60;66.00
34137;DHT22;20414;50.860;4.382;2022-12-18T11:43:06;8.60;66.00
34137;DHT22;20414;50.860;4.382;2022-12-18T11:45:40;8.60;66.00
34137;DHT22;20414;50.860;4.382;2022-12-18T11:50:52;8.60;66.00
34137;DHT22;20414;50.860;4.382;2022-12-18T11:53:19;8.60;66.00
34137;DHT22;20414;50.860;4.382;2022-12-18T12:12:51;8.60;66.00
34137;DHT22;20414;50.860;4.382;2022-12-18T12:18:24;8.60;66.00
34137;DHT22;20414;50.860;4.382;2022-12-18T12:21:11;8.60;66.70
34137;DHT22;20414;50.860;4.382;2022-12-18T12:26:30;8.60;66.00
34137;DHT22;20414;50.860;4.382;2022-12-18T12:31:33;8.60;66.00
34137;DHT22;20414;50.860;4.382;2022-12-18T12:34:48;8.60;66.00
34137;DHT22;20414;50.860;4.382;2022-12-18T12:39:54;8.60;66.00
34137;DHT22;20414;50.860;4.382;2022-12-18T12:48:16;8.60;66.00
34137;DHT22;20414;50.860;4.382;2022-12-18T12:50:42;8.60;65.90
34137;DHT22;20414;50.860;4.382;2022-12-18T12:53:23;8.60;66.00
34137;DHT22;20414;50.860;4.382;2022-12-18T12:55:52;8.60;65.90
34137;DHT22;20414;50.860;4.382;2022-12-18T13:06:43;8.60;65.90
34137;DHT22;20414;50.860;4.382;2022-12-18T13:09:10;8.60;65.90
34137;DHT22;20414;50.860;4.382;2022-12-18T13:14:29;8.60;65.90
34137;DHT22;20414;50.860;4.382;2022-12-18T13:17:15;8.60;65.90
34137;DHT22;20414;50.860;4.382;2022-12-18T13:19:42;8.60;65.90
34137;DHT22;20414;50.860;4.382;2022-12-18T13:22:31;8.60;65.90
34137;DHT22;20414;50.860;4.382;2022-12-18T13:24:59;8.60;65.90
34137;DHT22;20414;50.860;4.382;2022-12-18T13:27:56;8.60;65.90
34137;DHT22;20414;50.860;4.382;2022-12-18T13:40:58;8.60;65.90
34137;DHT22;20414;50.860;4.382;2022-12-18T13:43:29;8.60;65.90
34137;DHT22;20414;50.860;4.382;2022-12-18T13:46:21;8.60;65.90
34137;DHT22;20414;50.860;4.382;2022-12-18T13:48:55;8.60;65.90
34137;DHT22;20414;50.860;4.382;2022-12-18T13:51:22;8.60;65.90
34137;DHT22;20414;50.860;4.382;2022-12-18T13:53:52;8.60;65.90
34137;DHT22;20414;50.860;4.382;2022-12-18T13:56:26;8.60;65.90
34137;DHT22;20414;50.860;4.382;2022-12-18T13:59:12;8.60;65.90
34137;DHT22;20414;50.860;4.382;2022-12-18T14:01:58;8.60;65.90
34137;DHT22;20414;50.860;4.382;2022-12-18T14:09:43;8.60;66.00
34137;DHT22;20414;50.860;4.382;2022-12-18T14:12:22;8.60;66.00
34137;DHT22;20414;50.860;4.382;2022-12-18T14:15:49;8.60;66.00
34137;DHT22;20414;50.860;4.382;2022-12-18T14:18:30;8.60;66.00
34137;DHT22;20414;50.860;4.382;2022-12-18T14:21:00;8.60;66.00
34137;DHT22;20414;50.860;4.382;2022-12-18T14:25:54;8.60;66.00
34137;DHT22;20414;50.860;4.382;2022-12-18T14:28:20;8.60;66.00
34137;DHT22;20414;50.860;4.382;2022-12-18T14:30:48;8.60;66.10
34137;DHT22;20414;50.860;4.382;2022-12-18T14:33:15;8.60;66.00
34137;DHT22;20414;50.860;4.382;2022-12-18T14:35:52;8.60;66.10
34137;DHT22;20414;50.860;4.382;2022-12-18T14:40:58;8.60;66.10
34137;DHT22;20414;50.860;4.382;2022-12-18T14:43:32;8.60;66.00
34137;DHT22;20414;50.860;4.382;2022-12-18T14:45:59;8.60;66.00
34137;DHT22;20414;50.860;4.382;2022-12-18T14:53:43;8.60;66.00
34137;DHT22;20414;50.860;4.382;2022-12-18T14:56:26;8.60;66.10
34137;DHT22;20414;50.860;4.382;2022-12-18T14:59:04;8.60;66.10
34137;DHT22;20414;50.860;4.382;2022-12-18T15:01:36;8.60;66.10
34137;DHT22;20414;50.860;4.382;2022-12-18T15:04:04;8.60;66.80
34137;DHT22;20414;50.860;4.382;2022-12-18T15:06:34;8.60;66.10
34137;DHT22;20414;50.860;4.382;2022-12-18T15:09:03;8.60;66.10
34137;DHT22;20414;50.860;4.382;2022-12-18T15:11:45;8.60;66.10
34137;DHT22;20414;50.860;4.382;2022-12-18T15:16:56;8.60;66.10
34137;DHT22;20414;50.860;4.382;2022-12-18T15:19:35;8.60;66.10
34137;DHT22;20414;50.860;4.382;2022-12-18T15:22:02;8.60;66.10
34137;DHT22;20414;50.860;4.382;2022-12-18T15:24:31;8.60;66.10
34137;DHT22;20414;50.860;4.382;2022-12-18T15:26:58;8.60;66.10
34137;DHT22;20414;50.860;4.382;2022-12-18T15:29:23;8.60;66.80
34137;DHT22;20414;50.860;4.382;2022-12-18T15:32:02;8.60;66.10
34137;DHT22;20414;50.860;4.382;2022-12-18T15:34:29;8.60;66.10
34137;DHT22;20414;50.860;4.382;2022-12-18T15:36:55;8.60;66.00
34137;DHT22;20414;50.860;4.382;2022-12-18T15:39:21;8.60;66.10
34137;DHT22;20414;50.860;4.382;2022-12-18T15:41:46;8.60;66.10
34137;DHT22;20414;50.860;4.382;2022-12-18T15:44:31;8.60;66.10
34137;DHT22;20414;50.860;4.382;2022-12-18T15:46:57;8.60;66.70
34137;DHT22;20414;50.860;4.382;2022-12-18T15:49:23;8.60;66.00
34137;DHT22;20414;50.860;4.382;2022-12-18T15:51:52;8.60;66.00
34137;DHT22;20414;50.860;4.382;2022-12-18T15:54:18;8.60;66.00
34137;DHT22;20414;50.860;4.382;2022-12-18T15:57:04;8.50;66.00
34137;DHT22;20414;50.860;4.382;2022-12-18T15:59:48;8.60;66.00
34137;DHT22;20414;50.860;4.382;2022-12-18T16:02:17;8.50;66.00
34137;DHT22;20414;50.860;4.382;2022-12-18T16:04:43;8.60;66.10
34137;DHT22;20414;50.860;4.382;2022-12-18T16:07:09;8.50;66.00
34137;DHT22;20414;50.860;4.382;2022-12-18T16:09:36;8.50;66.00
34137;DHT22;20414;50.860;4.382;2022-12-18T16:12:15;8.60;66.00
34137;DHT22;20414;50.860;4.382;2022-12-18T16:14:42;8.60;66.10
34137;DHT22;20414;50.860;4.382;2022-12-18T16:17:10;8.60;66.10
34137;DHT22;20414;50.860;4.382;2022-12-18T16:19:36;8.60;66.00
34137;DHT22;20414;50.860;4.382;2022-12-18T16:22:02;8.60;66.00
34137;DHT22;20414;50.860;4.382;2022-12-18T16:24:31;8.60;66.00
34137;DHT22;20414;50.860;4.382;2022-12-18T16:26:59;8.60;66.00
34137;DHT22;20414;50.860;4.382;2022-12-18T16:29:44;8.50;66.00
34137;DHT22;20414;50.860;4.382;2022-12-18T16:32:15;8.50;66.00
34137;DHT22;20414;50.860;4.382;2022-12-18T16:34:41;8.60;66.00
34137;DHT22;20414;50.860;4.382;2022-12-18T16:37:09;8.60;66.00
34137;DHT22;20414;50.860;4.382;2022-12-18T16:39:37;8.60;66.10
34137;DHT22;20414;50.860;4.382;2022-12-18T16:42:10;8.60;66.00
34137;DHT22;20414;50.860;4.382;2022-12-18T16:44:38;8.50;66.00
34137;DHT22;20414;50.860;4.382;2022-12-18T16:47:03;8.50;66.00
34137;DHT22;20414;50.860;4.382;2022-12-18T16:49:29;8.60;66.00
34137;DHT22;20414;50.860;4.382;2022-12-18T16:51:58;8.60;66.10
34137;DHT22;20414;50.860;4.382;2022-12-18T16:54:27;8.60;66.00
34137;DHT22;20414;50.860;4.382;2022-12-18T16:56:55;8.50;65.90
34137;DHT22;20414;50.860;4.382;2022-12-18T16:59:21;8.50;66.00
34137;DHT22;20414;50.860;4.382;2022-12-18T17:01:46;8.50;66.00
34137;DHT22;20414;50.860;4.382;2022-12-18T17:04:12;8.50;66.00
34137;DHT22;20414;50.860;4.382;2022-12-18T17:06:40;8.50;65.90
34137;DHT22;20414;50.860;4.382;2022-12-18T17:09:11;8.60;66.00
34137;DHT22;20414;50.860;4.382;2022-12-18T17:11:39;8.60;66.00
34137;DHT22;20414;50.860;4.382;2022-12-18T17:14:16;8.60;66.00
34137;DHT22;20414;50.860;4.382;2022-12-18T17:16:42;8.50;65.90
34137;DHT22;20414;50.860;4.382;2022-12-18T17:19:09;8.50;65.90
34137;DHT22;20414;50.860;4.382;2022-12-18T17:21:35;8.50;65.90
34137;DHT22;20414;50.860;4.382;2022-12-18T17:24:01;8.50;65.90
34137;DHT22;20414;50.860;4.382;2022-12-18T17:26:30;8.60;66.00
34137;DHT22;20414;50.860;4.382;2022-12-18T17:28:56;8.50;65.90
34137;DHT22;20414;50.860;4.382;2022-12-18T17:31:24;8.60;66.00
34137;DHT22;20414;50.860;4.382;2022-12-18T17:33:50;8.50;65.90
34137;DHT22;20414;50.860;4.382;2022-12-18T17:36:17;8.60;66.00
34137;DHT22;20414;50.860;4.382;2022-12-18T17:38:48;8.50;65.90
34137;DHT22;20414;50.860;4.382;2022-12-18T17:41:14;8.50;66.00
34137;DHT22;20414;50.860;4.382;2022-12-18T17:43:40;8.60;66.00
34137;DHT22;20414;50.860;4.382;2022-12-18T17:46:13;8.60;66.00
34137;DHT22;20414;50.860;4.382;2022-12-18T17:48:40;8.50;66.00
34137;DHT22;20414;50.860;4.382;2022-12-18T17:51:09;8.60;66.00
34137;DHT22;20414;50.860;4.382;2022-12-18T17:53:36;8.50;65.90
34137;DHT22;20414;50.860;4.382;2022-12-18T17:56:03;8.50;65.90
34137;DHT22;20414;50.860;4.382;2022-12-18T17:58:37;8.50;65.90
34137;DHT22;20414;50.860;4.382;2022-12-18T18:01:03;8.50;65.90
34137;DHT22;20414;50.860;4.382;2022-12-18T18:03:31;8.50;65.90
34137;DHT22;20414;50.860;4.382;2022-12-18T18:06:01;8.60;66.00
34137;DHT22;20414;50.860;4.382;2022-12-18T18:08:27;8.60;66.00
34137;DHT22;20414;50.860;4.382;2022-12-18T18:10:54;8.60;66.00